Aérodrome :
LOGIN :

S'inscrire | Disclaimer

   EN    FR    IT 

 










Légende :    VFR   VFR Marginal   IFR   IFR Intensif   IFR Très Intensif
Visi : 
Plafond : 
>= 8 km
>= 3000ft
5 à 8 km
1000 à 3000 ft
1500m à 5 km
500 à 1000 ft
800 à 1500m
200 à 500 ft
< 800m
< 200 ft
Symboles :   Orages  Brouillard  Fortes neiges  Fortes précipitations  Vent > 20 kt
SIGMETs :   Divers  Orages  Givrage  Turbulence  Onde Orograph.  Cendres Volcan.







- Altitude de l'aérodrome : 309 ft
- Code IATA : FNI
- Voir les cartes d'approche


LFTW - Nîmes Garons

DERNIER METAR :
  • 251830Z AUTO 25004KT CAVOK 20/13 Q1015 NOSIG

METARs EXPIRÉS :
  • 251800Z AUTO 25006KT CAVOK 21/14 Q1015 NOSIG
  • 251730Z AUTO 23008KT 190V260 CAVOK 22/14 Q1015 NOSIG
  • 251700Z AUTO 23007KT 200V260 CAVOK 25/13 Q1015 NOSIG
  • 251630Z AUTO 20006KT 170V250 CAVOK 25/13 Q1015 NOSIG
  • 251600Z AUTO 13006KT 100V170 CAVOK 25/12 Q1014 NOSIG
  • 251530Z AUTO 12006KT CAVOK 25/12 Q1014 BECMG 20012KT

TAF TAF LFTW
Valide du 25 à 15h jusqu'au 26 à 15h UTC


251400Z 2515/2615 20012KT CAVOK
BECMG 2520/2522 VRB02KT
BECMG 2611/2613 18012KT
Pas de NOTAMs connus pour ce terrain.



MET'MAP, la Météo Aéronautique d'un coup d'oeil ! - Copyright ORBIFLY Décembre 2007 - Disclaimer

ORBIFLY MET'MAP TEAM :

Programmation & Développement : Alexandra Zaïnal
Conception & Développement : Baudouin d'Aumeries
Co-Programmation & Développement : Marc-Olivier Méhu
Soutien technique & logistique : Manuel Goepfert

Contact : metmap@orbifly.com




SOURCES & CREDITS :

   NOAA